createdAt,value
2019-05-25T00:00:11.026Z,99.90
2019-05-25T00:02:40.419Z,99.90
2019-05-25T00:05:10.126Z,99.90
2019-05-25T00:07:40.698Z,99.90
2019-05-25T00:10:10.159Z,99.90
2019-05-25T00:12:39.467Z,99.90
2019-05-25T00:15:09.536Z,99.90
2019-05-25T00:17:39.393Z,99.90
2019-05-25T00:20:08.909Z,99.90
2019-05-25T00:22:38.262Z,99.90
2019-05-25T00:25:07.718Z,99.90
2019-05-25T00:27:37.018Z,99.90
2019-05-25T00:30:08.181Z,99.90
2019-05-25T00:32:38.666Z,99.90
2019-05-25T00:35:08.178Z,99.90
2019-05-25T00:37:37.483Z,99.90
2019-05-25T00:40:07.299Z,99.90
2019-05-25T00:42:36.615Z,99.90
2019-05-25T00:45:06.560Z,99.90
2019-05-25T00:47:35.924Z,99.90
2019-05-25T00:50:07.253Z,99.90
2019-05-25T00:52:36.572Z,99.90
2019-05-25T00:55:08.699Z,99.90
2019-05-25T00:57:38.978Z,99.90
2019-05-25T01:00:08.750Z,99.90
2019-05-25T01:02:40.023Z,99.90
2019-05-25T01:05:09.974Z,99.90
2019-05-25T01:07:39.305Z,99.90
2019-05-25T01:10:10.822Z,99.90
2019-05-25T01:12:40.129Z,99.90
2019-05-25T01:15:10.389Z,99.90
2019-05-25T01:17:39.858Z,99.90
2019-05-25T01:20:10.406Z,99.90
2019-05-25T01:22:40.082Z,99.90
2019-05-25T01:25:09.818Z,99.90
2019-05-25T01:27:40.491Z,99.90
2019-05-25T01:30:11.513Z,99.90
2019-05-25T01:32:40.832Z,99.90
2019-05-25T01:35:10.471Z,99.90
2019-05-25T01:37:39.807Z,99.90
2019-05-25T01:40:09.818Z,99.90
2019-05-25T01:42:39.120Z,99.90
2019-05-25T01:45:10.094Z,99.90
2019-05-25T01:47:39.396Z,99.90
2019-05-25T01:50:09.250Z,99.90
2019-05-25T01:52:39.611Z,99.90
2019-05-25T01:55:09.347Z,99.90
2019-05-25T01:57:38.660Z,99.90
2019-05-25T02:00:08.971Z,99.90
2019-05-25T02:02:38.264Z,99.90
2019-05-25T02:05:08.414Z,99.90
2019-05-25T02:07:37.712Z,99.90
2019-05-25T02:10:09.194Z,99.90
2019-05-25T02:12:38.493Z,99.90
2019-05-25T02:15:09.028Z,99.90
2019-05-25T02:17:38.330Z,99.90
2019-05-25T02:20:09.098Z,99.90
2019-05-25T02:22:39.426Z,99.90
2019-05-25T02:25:17.581Z,99.90
2019-05-25T02:27:41.585Z,99.90
2019-05-25T02:30:12.427Z,99.90
2019-05-25T02:32:41.804Z,99.90
2019-05-25T02:35:14.172Z,99.90
2019-05-25T02:37:44.098Z,99.90
2019-05-25T02:40:13.403Z,99.90
2019-05-25T02:42:42.708Z,99.90
2019-05-25T02:45:12.074Z,99.90
2019-05-25T02:47:41.378Z,99.90
2019-05-25T02:50:10.936Z,99.90
2019-05-25T02:52:40.226Z,99.90
2019-05-25T02:55:12.397Z,99.90
2019-05-25T02:57:41.693Z,99.90
2019-05-25T03:00:12.845Z,99.90
2019-05-25T03:02:42.205Z,99.90
2019-05-25T03:05:14.600Z,99.90
2019-05-25T03:07:45.520Z,99.90
2019-05-25T03:10:15.892Z,99.90
2019-05-25T03:12:45.559Z,99.90
2019-05-25T03:15:15.990Z,99.90
2019-05-25T03:17:45.285Z,99.90
2019-05-25T03:20:15.036Z,99.90
2019-05-25T03:22:44.392Z,99.90
2019-05-25T03:25:14.029Z,99.90
2019-05-25T03:27:44.720Z,99.90
2019-05-25T03:30:14.462Z,99.90
2019-05-25T03:32:43.749Z,99.90
2019-05-25T03:35:13.287Z,99.90
2019-05-25T03:37:42.633Z,99.90
2019-05-25T03:40:13.036Z,99.90
2019-05-25T03:42:42.344Z,99.90
2019-05-25T03:45:11.928Z,99.90
2019-05-25T03:47:41.238Z,99.90
2019-05-25T03:50:11.750Z,99.90
2019-05-25T03:52:41.052Z,99.90
2019-05-25T03:55:10.419Z,99.90
2019-05-25T03:57:39.721Z,99.90
2019-05-25T04:00:09.566Z,99.90
2019-05-25T04:02:39.739Z,99.90
2019-05-25T04:05:09.230Z,99.90
2019-05-25T04:07:38.527Z,99.90
2019-05-25T04:10:08.203Z,99.90
2019-05-25T04:12:39.152Z,99.90
2019-05-25T04:15:08.588Z,99.90
2019-05-25T04:17:38.019Z,99.90
2019-05-25T04:20:07.747Z,99.90
2019-05-25T04:22:37.693Z,99.90
2019-05-25T04:25:07.329Z,99.90
2019-05-25T04:27:36.620Z,99.90
2019-05-25T04:30:06.759Z,99.90
2019-05-25T04:32:36.073Z,99.90
2019-05-25T04:35:06.235Z,99.90
2019-05-25T04:37:35.604Z,99.90
2019-05-25T04:40:07.745Z,99.90
2019-05-25T04:42:37.140Z,99.90
2019-05-25T04:45:07.392Z,99.90
2019-05-25T04:47:36.687Z,99.90
2019-05-25T04:50:07.533Z,99.90
2019-05-25T04:52:40.735Z,99.90
2019-05-25T04:55:08.495Z,99.90
2019-05-25T04:57:38.285Z,99.90
2019-05-25T05:00:09.124Z,99.90
2019-05-25T05:02:38.426Z,99.90
2019-05-25T05:05:08.076Z,99.90
2019-05-25T05:07:37.378Z,99.90
2019-05-25T05:10:08.037Z,99.90
2019-05-25T05:12:37.341Z,99.90
2019-05-25T05:15:07.385Z,99.90
2019-05-25T05:17:36.768Z,99.90
2019-05-25T05:20:08.717Z,99.90
2019-05-25T05:22:38.064Z,99.90
2019-05-25T05:25:09.366Z,99.90
2019-05-25T05:27:39.307Z,99.90
2019-05-25T05:30:09.649Z,99.90
2019-05-25T05:32:39.018Z,99.90
2019-05-25T05:35:09.832Z,99.90
2019-05-25T05:37:40.877Z,99.90
2019-05-25T05:40:10.643Z,99.90
2019-05-25T05:42:42.955Z,99.90
2019-05-25T05:45:12.512Z,99.90
2019-05-25T05:47:46.343Z,99.90
2019-05-25T05:50:17.216Z,99.90
2019-05-25T05:52:51.484Z,99.90
2019-05-25T05:55:23.892Z,99.90
2019-05-25T05:57:53.187Z,99.90
2019-05-25T06:00:22.654Z,99.90
2019-05-25T06:02:52.030Z,99.90
2019-05-25T06:05:21.333Z,99.90
2019-05-25T06:07:50.906Z,99.90
2019-05-25T06:10:21.836Z,99.90
2019-05-25T06:12:51.670Z,99.90
2019-05-25T06:15:20.973Z,99.90
2019-05-25T06:17:51.277Z,99.90
2019-05-25T06:20:20.646Z,99.90
2019-05-25T06:22:49.958Z,99.90
2019-05-25T06:25:20.261Z,99.90
2019-05-25T06:27:49.602Z,99.90
2019-05-25T06:30:19.608Z,99.90
2019-05-25T06:32:48.912Z,99.90
2019-05-25T06:35:19.332Z,99.90
2019-05-25T06:37:48.643Z,99.90
2019-05-25T06:40:18.475Z,99.90
2019-05-25T06:42:47.785Z,99.90
2019-05-25T06:45:17.527Z,99.90
2019-05-25T06:47:46.836Z,99.90
2019-05-25T06:50:16.691Z,99.90
2019-05-25T06:52:46.001Z,99.90
2019-05-25T06:55:15.301Z,99.90
2019-05-25T06:57:44.609Z,99.90
2019-05-25T07:00:14.147Z,99.90
2019-05-25T07:02:44.349Z,99.90
2019-05-25T07:05:13.985Z,99.90
2019-05-25T07:07:43.289Z,99.90
2019-05-25T07:10:13.064Z,99.90
2019-05-25T07:12:42.369Z,99.90
2019-05-25T07:15:13.859Z,99.90
2019-05-25T07:17:43.165Z,99.90
2019-05-25T07:20:13.248Z,99.90
2019-05-25T07:22:42.557Z,99.90
2019-05-25T07:25:12.130Z,99.90
2019-05-25T07:27:41.432Z,99.90
2019-05-25T07:30:11.348Z,99.90
2019-05-25T07:32:40.695Z,99.90
2019-05-25T07:35:10.332Z,99.90
2019-05-25T07:37:39.633Z,99.90
2019-05-25T07:40:09.555Z,99.90
2019-05-25T07:42:38.969Z,99.90
2019-05-25T07:45:09.019Z,99.90
2019-05-25T07:47:38.330Z,99.90
2019-05-25T07:50:08.889Z,99.90
2019-05-25T07:52:38.193Z,99.90
2019-05-25T07:55:08.036Z,99.90
2019-05-25T07:57:37.637Z,99.90
2019-05-25T08:00:08.378Z,99.90
2019-05-25T08:02:37.705Z,99.90
2019-05-25T08:05:07.936Z,99.90
2019-05-25T08:07:37.246Z,99.90
2019-05-25T08:10:06.943Z,99.90
2019-05-25T08:12:36.260Z,99.90
2019-05-25T08:15:06.112Z,99.90
2019-05-25T08:17:36.754Z,99.90
2019-05-25T08:20:07.216Z,99.90
2019-05-25T08:22:36.516Z,99.90
2019-05-25T08:25:10.429Z,99.90
2019-05-25T08:27:39.750Z,99.90
2019-05-25T08:30:09.497Z,99.90
2019-05-25T08:32:38.807Z,99.90
2019-05-25T08:35:08.445Z,99.90
2019-05-25T08:37:37.764Z,99.90
2019-05-25T08:40:07.673Z,99.90
2019-05-25T08:42:36.970Z,99.90
2019-05-25T08:45:09.800Z,99.90
2019-05-25T08:47:39.104Z,99.90
2019-05-25T08:50:10.117Z,99.90
2019-05-25T08:52:39.456Z,99.90
2019-05-25T08:55:09.092Z,99.90
2019-05-25T08:57:38.444Z,99.90
2019-05-25T09:00:08.818Z,99.90
2019-05-25T09:02:38.116Z,99.90
2019-05-25T09:05:08.137Z,99.90
2019-05-25T09:07:38.456Z,99.90
2019-05-25T09:10:08.696Z,99.90
2019-05-25T09:12:38.001Z,99.90
2019-05-25T09:15:07.840Z,99.90
2019-05-25T09:17:37.169Z,99.90
2019-05-25T09:20:08.248Z,99.90
2019-05-25T09:22:37.552Z,99.90
2019-05-25T09:25:09.134Z,99.90
2019-05-25T09:27:38.509Z,99.90
2019-05-25T09:30:08.859Z,99.90
2019-05-25T09:32:38.228Z,99.90
2019-05-25T09:35:08.274Z,99.90
2019-05-25T09:37:37.589Z,99.90
2019-05-25T09:40:07.433Z,99.90
2019-05-25T09:42:36.908Z,99.90
2019-05-25T09:45:08.958Z,99.90
2019-05-25T09:47:39.322Z,99.90
2019-05-25T09:50:09.291Z,99.90
2019-05-25T09:52:38.585Z,99.90
2019-05-25T09:55:10.006Z,99.90
2019-05-25T09:57:41.668Z,99.90
2019-05-25T10:00:14.269Z,99.90
2019-05-25T10:02:44.108Z,99.90
2019-05-25T10:05:14.401Z,99.90
2019-05-25T10:07:43.699Z,99.90
2019-05-25T10:10:13.640Z,99.90
2019-05-25T10:12:43.033Z,99.90
2019-05-25T10:15:12.478Z,99.90
2019-05-25T10:17:42.763Z,99.90
2019-05-25T10:20:13.607Z,99.90
2019-05-25T10:22:42.910Z,99.90
2019-05-25T10:25:12.469Z,99.90
2019-05-25T10:27:41.771Z,99.90
2019-05-25T10:30:11.615Z,99.90
2019-05-25T10:32:40.940Z,99.90
2019-05-25T10:35:11.749Z,99.90
2019-05-25T10:37:42.100Z,99.90
2019-05-25T10:40:12.058Z,99.90
2019-05-25T10:42:41.364Z,99.90
2019-05-25T10:45:11.113Z,99.90
2019-05-25T10:47:41.383Z,99.90
2019-05-25T10:50:11.231Z,99.90
2019-05-25T10:52:41.356Z,99.90
2019-05-25T10:55:11.413Z,99.90
2019-05-25T10:57:41.331Z,99.90
2019-05-25T11:00:12.065Z,99.90
2019-05-25T11:02:41.381Z,99.90
2019-05-25T11:05:11.333Z,99.90
2019-05-25T11:07:40.631Z,99.90
2019-05-25T11:10:10.379Z,99.90
2019-05-25T11:12:39.695Z,99.20
2019-05-25T11:15:09.326Z,99.60
2019-05-25T11:17:38.626Z,98.50
2019-05-25T11:20:11.768Z,99.30
2019-05-25T11:22:41.073Z,98.80
2019-05-25T11:25:10.808Z,98.80
2019-05-25T11:27:40.103Z,97.90
2019-05-25T11:30:11.317Z,99.20
2019-05-25T11:32:40.611Z,96.50
2019-05-25T11:35:11.139Z,94.60
2019-05-25T11:37:41.729Z,95.30
2019-05-25T11:40:11.664Z,95.20
2019-05-25T11:42:40.965Z,95.90
2019-05-25T11:45:10.532Z,95.90
2019-05-25T11:47:39.841Z,94.80
2019-05-25T11:50:09.601Z,96.60
2019-05-25T11:52:39.137Z,95.10
2019-05-25T11:55:09.528Z,94.20
2019-05-25T11:57:39.799Z,94.30
2019-05-25T12:00:24.385Z,95.20
2019-05-25T12:02:45.002Z,95.20
2019-05-25T12:05:15.562Z,93.00
2019-05-25T12:07:45.158Z,90.10
2019-05-25T12:10:15.181Z,92.40
2019-05-25T12:12:44.485Z,89.60
2019-05-25T12:15:14.118Z,91.50
2019-05-25T12:17:43.439Z,90.70
2019-05-25T12:20:16.140Z,90.90
2019-05-25T12:22:45.453Z,87.50
2019-05-25T12:25:14.808Z,88.50
2019-05-25T12:27:44.110Z,84.90
2019-05-25T12:30:16.821Z,88.50
2019-05-25T12:32:46.117Z,90.00
2019-05-25T12:35:16.960Z,92.90
2019-05-25T12:37:46.262Z,90.60
2019-05-25T12:40:16.766Z,87.60
2019-05-25T12:42:46.204Z,82.10
2019-05-25T12:45:16.413Z,85.80
2019-05-25T12:47:45.718Z,88.40
2019-05-25T12:50:15.643Z,90.70
2019-05-25T12:52:44.947Z,88.50
2019-05-25T12:55:14.242Z,91.30
2019-05-25T12:57:43.540Z,90.70
2019-05-25T13:00:16.224Z,91.10
2019-05-25T13:02:44.296Z,89.30
2019-05-25T13:05:15.579Z,85.90
2019-05-25T13:07:44.882Z,84.70
2019-05-25T13:10:14.523Z,79.30
2019-05-25T13:12:43.842Z,80.90
2019-05-25T13:15:13.383Z,79.10
2019-05-25T13:17:42.715Z,78.10
2019-05-25T13:20:12.083Z,76.50
2019-05-25T13:22:43.462Z,74.50
2019-05-25T13:25:13.077Z,76.50
2019-05-25T13:27:42.428Z,76.40
2019-05-25T13:30:12.170Z,79.30
2019-05-25T13:32:41.468Z,69.30
2019-05-25T13:35:10.976Z,67.20
2019-05-25T13:37:40.271Z,74.40
2019-05-25T13:40:10.119Z,71.60
2019-05-25T13:42:39.425Z,80.30
2019-05-25T13:45:09.689Z,73.00
2019-05-25T13:47:39.078Z,70.70
2019-05-25T13:50:08.916Z,69.10
2019-05-25T13:52:38.220Z,75.50
2019-05-25T13:55:08.155Z,72.50
2019-05-25T13:57:37.450Z,66.10
2019-05-25T14:00:08.537Z,67.00
2019-05-25T14:02:37.850Z,64.30
2019-05-25T14:05:08.560Z,59.10
2019-05-25T14:07:37.853Z,57.90
2019-05-25T14:10:08.860Z,61.60
2019-05-25T14:12:38.224Z,62.10
2019-05-25T14:15:09.348Z,63.00
2019-05-25T14:17:39.395Z,61.70
2019-05-25T14:20:10.127Z,60.60
2019-05-25T14:22:39.454Z,58.70
2019-05-25T14:25:09.684Z,59.00
2019-05-25T14:27:39.049Z,62.10
2019-05-25T14:30:08.932Z,62.00
2019-05-25T14:32:38.235Z,62.70
2019-05-25T14:35:07.872Z,59.60
2019-05-25T14:37:37.184Z,64.60
2019-05-25T14:40:11.265Z,63.70
2019-05-25T14:42:39.602Z,60.00
2019-05-25T14:45:09.533Z,55.40
2019-05-25T14:47:38.934Z,56.90
2019-05-25T14:50:08.805Z,52.80
2019-05-25T14:52:38.134Z,53.00
2019-05-25T14:55:08.370Z,51.50
2019-05-25T14:57:37.670Z,52.90
2019-05-25T15:00:08.692Z,56.70
2019-05-25T15:02:38.004Z,55.60
2019-05-25T15:05:07.545Z,57.50
2019-05-25T15:07:36.891Z,57.30
2019-05-25T15:10:07.555Z,52.70
2019-05-25T15:12:39.101Z,58.30
2019-05-25T15:15:08.946Z,63.70
2019-05-25T15:17:38.289Z,69.70
2019-05-25T15:20:09.805Z,72.50
2019-05-25T15:22:39.101Z,77.90
2019-05-25T15:25:09.169Z,79.60
2019-05-25T15:27:38.470Z,81.30
2019-05-25T15:30:08.312Z,83.50
2019-05-25T15:32:37.644Z,82.00
2019-05-25T15:35:07.980Z,87.20
2019-05-25T15:37:37.307Z,89.20
2019-05-25T15:40:09.308Z,86.30
2019-05-25T15:42:40.503Z,82.20
2019-05-25T15:45:11.217Z,85.30
2019-05-25T15:47:40.524Z,91.10
2019-05-25T15:50:11.474Z,88.30
2019-05-25T15:52:40.769Z,86.30
2019-05-25T15:55:10.800Z,87.90
2019-05-25T15:57:40.088Z,90.30
2019-05-25T16:00:13.699Z,91.30
2019-05-25T16:02:43.374Z,90.40
2019-05-25T16:05:14.477Z,89.20
2019-05-25T16:07:46.975Z,89.10
2019-05-25T16:10:17.028Z,90.00
2019-05-25T16:12:46.336Z,90.10
2019-05-25T16:15:18.716Z,90.00
2019-05-25T16:17:48.032Z,90.30
2019-05-25T16:20:20.425Z,89.40
2019-05-25T16:22:49.833Z,89.70
2019-05-25T16:25:19.885Z,89.80
2019-05-25T16:27:49.181Z,90.90
2019-05-25T16:30:18.549Z,90.60
2019-05-25T16:33:10.753Z,91.00
2019-05-25T16:35:18.868Z,91.90
2019-05-25T16:37:48.549Z,91.40
2019-05-25T16:40:18.219Z,91.90
2019-05-25T16:42:47.520Z,93.10
2019-05-25T16:45:17.175Z,92.90
2019-05-25T16:47:46.544Z,93.00
2019-05-25T16:50:16.543Z,90.90
2019-05-25T16:52:46.045Z,91.10
2019-05-25T16:55:16.818Z,91.10
2019-05-25T16:57:46.869Z,91.20
2019-05-25T17:00:20.186Z,91.50
2019-05-25T17:02:49.484Z,92.00
2019-05-25T17:05:18.784Z,93.00
2019-05-25T17:07:48.084Z,93.20
2019-05-25T17:10:17.461Z,93.70
2019-05-25T17:12:46.764Z,93.20
2019-05-25T17:15:16.128Z,93.70
2019-05-25T17:17:45.876Z,93.30
2019-05-25T17:20:15.453Z,93.60
2019-05-25T17:22:44.763Z,94.80
2019-05-25T17:25:15.571Z,94.90
2019-05-25T17:27:45.669Z,95.70
2019-05-25T17:30:15.804Z,95.40
2019-05-25T17:32:45.106Z,95.60
2019-05-25T17:35:15.513Z,95.20
2019-05-25T17:37:44.812Z,95.30
2019-05-25T17:40:14.837Z,95.30
2019-05-25T17:42:44.136Z,95.50
2019-05-25T17:45:13.980Z,95.90
2019-05-25T17:47:43.300Z,94.90
2019-05-25T17:50:12.744Z,95.70
2019-05-25T17:52:42.089Z,95.40
2019-05-25T17:55:11.537Z,95.00
2019-05-25T17:57:40.839Z,95.60
2019-05-25T18:00:11.164Z,95.80
2019-05-25T18:02:40.468Z,95.00
2019-05-25T18:05:10.909Z,95.30
2019-05-25T18:07:40.214Z,96.10
2019-05-25T18:10:10.077Z,96.20
2019-05-25T18:12:40.068Z,96.20
2019-05-25T18:15:10.320Z,95.90
2019-05-25T18:17:39.625Z,96.60
2019-05-25T18:20:10.389Z,96.90
2019-05-25T18:22:39.783Z,97.00
2019-05-25T18:25:10.124Z,97.00
2019-05-25T18:27:39.423Z,97.10
2019-05-25T18:30:11.961Z,97.30
2019-05-25T18:32:41.257Z,97.60
2019-05-25T18:35:12.474Z,98.20
2019-05-25T18:37:41.778Z,98.30
2019-05-25T18:40:11.320Z,98.00
2019-05-25T18:42:40.632Z,98.50
2019-05-25T18:45:10.144Z,98.30
2019-05-25T18:47:39.457Z,98.50
2019-05-25T18:50:10.269Z,99.40
2019-05-25T18:52:41.472Z,99.00
2019-05-25T18:55:11.388Z,98.80
2019-05-25T18:57:40.688Z,99.50
2019-05-25T19:00:10.642Z,99.10
2019-05-25T19:02:40.004Z,99.20
2019-05-25T19:05:10.858Z,99.20
2019-05-25T19:07:40.161Z,99.80
2019-05-25T19:10:10.513Z,99.90
2019-05-25T19:12:39.816Z,99.90
2019-05-25T19:15:09.772Z,99.90
2019-05-25T19:17:39.224Z,99.90
2019-05-25T19:20:09.534Z,99.90
2019-05-25T19:22:38.879Z,99.90
2019-05-25T19:25:09.021Z,99.90
2019-05-25T19:27:38.314Z,99.90
2019-05-25T19:30:09.261Z,99.90
2019-05-25T19:32:41.261Z,99.90
2019-05-25T19:35:11.128Z,99.90
2019-05-25T19:37:42.430Z,99.90
2019-05-25T19:40:11.983Z,99.90
2019-05-25T19:42:41.288Z,99.90
2019-05-25T19:45:12.446Z,99.90
2019-05-25T19:47:41.748Z,99.90
2019-05-25T19:50:11.596Z,99.90
2019-05-25T19:52:40.912Z,99.90
2019-05-25T19:55:11.452Z,99.90
2019-05-25T19:57:40.762Z,99.90
2019-05-25T20:00:12.073Z,99.90
2019-05-25T20:02:41.382Z,99.90
2019-05-25T20:05:17.033Z,99.90
2019-05-25T20:07:42.241Z,99.90
2019-05-25T20:10:12.199Z,99.90
2019-05-25T20:12:41.499Z,99.90
2019-05-25T20:15:11.247Z,99.90
2019-05-25T20:17:40.629Z,99.90
2019-05-25T20:20:11.658Z,99.90
2019-05-25T20:22:40.964Z,99.90
2019-05-25T20:25:10.510Z,99.90
2019-05-25T20:27:39.843Z,99.90
2019-05-25T20:30:09.695Z,99.90
2019-05-25T20:32:39.125Z,99.90
2019-05-25T20:35:10.174Z,99.90
2019-05-25T20:37:39.472Z,99.90
2019-05-25T20:40:09.841Z,99.90
2019-05-25T20:42:39.457Z,99.90
2019-05-25T20:45:08.846Z,99.90
2019-05-25T20:47:38.240Z,99.90
2019-05-25T20:50:08.595Z,99.90
2019-05-25T20:52:37.902Z,99.90
2019-05-25T20:55:07.733Z,99.90
2019-05-25T20:57:37.032Z,99.90
2019-05-25T21:00:07.347Z,99.90
2019-05-25T21:02:38.213Z,99.90
2019-05-25T21:05:07.888Z,99.90
2019-05-25T21:07:37.318Z,99.90
2019-05-25T21:10:08.193Z,99.90
2019-05-25T21:12:37.664Z,99.90
2019-05-25T21:15:08.006Z,99.90
2019-05-25T21:17:37.347Z,99.90
2019-05-25T21:20:06.924Z,99.90
2019-05-25T21:22:36.221Z,99.90
2019-05-25T21:25:07.450Z,99.90
2019-05-25T21:27:37.825Z,99.90
2019-05-25T21:30:08.848Z,99.90
2019-05-25T21:32:38.160Z,99.90
2019-05-25T21:35:09.108Z,99.90
2019-05-25T21:37:38.421Z,99.90
2019-05-25T21:40:08.675Z,99.90
2019-05-25T21:42:38.040Z,99.90
2019-05-25T21:45:08.287Z,99.90
2019-05-25T21:47:37.619Z,99.90
2019-05-25T21:50:07.774Z,99.90
2019-05-25T21:52:37.354Z,99.90
2019-05-25T21:55:06.912Z,99.90
2019-05-25T21:57:36.346Z,99.90
2019-05-25T22:00:12.984Z,99.90
2019-05-25T22:02:43.831Z,99.90
2019-05-25T22:05:13.482Z,99.90
2019-05-25T22:07:42.785Z,99.90
2019-05-25T22:10:12.303Z,99.90
2019-05-25T22:12:41.622Z,99.90
2019-05-25T22:15:12.024Z,99.90
2019-05-25T22:17:42.926Z,99.90
2019-05-25T22:20:12.871Z,99.90
2019-05-25T22:22:42.164Z,99.90
2019-05-25T22:25:11.803Z,99.90
2019-05-25T22:27:41.116Z,99.90
2019-05-25T22:30:11.164Z,99.90
2019-05-25T22:32:40.481Z,99.90
2019-05-25T22:35:11.328Z,99.90
2019-05-25T22:37:40.634Z,99.90
2019-05-25T22:40:10.472Z,99.90
2019-05-25T22:42:39.777Z,99.90
2019-05-25T22:45:10.021Z,99.90
2019-05-25T22:47:39.326Z,99.90
2019-05-25T22:50:09.381Z,99.90
2019-05-25T22:52:38.685Z,99.90
2019-05-25T22:55:08.920Z,99.90
2019-05-25T22:57:38.385Z,99.90
2019-05-25T23:00:09.168Z,99.90
2019-05-25T23:02:38.644Z,99.90
2019-05-25T23:05:08.186Z,99.90
2019-05-25T23:07:37.484Z,99.90
2019-05-25T23:10:10.331Z,99.90
2019-05-25T23:12:39.689Z,99.90
2019-05-25T23:15:09.644Z,99.90
2019-05-25T23:17:39.215Z,99.90
2019-05-25T23:20:08.679Z,99.90
2019-05-25T23:22:37.976Z,99.90
2019-05-25T23:25:07.555Z,99.90
2019-05-25T23:27:36.933Z,99.90
2019-05-25T23:30:08.477Z,99.90
2019-05-25T23:32:38.655Z,99.90
2019-05-25T23:35:08.120Z,99.90
2019-05-25T23:37:38.780Z,99.90
2019-05-25T23:40:08.656Z,99.90
2019-05-25T23:42:39.116Z,99.90
2019-05-25T23:45:09.320Z,99.90
2019-05-25T23:47:38.629Z,99.90
2019-05-25T23:50:08.577Z,99.90
2019-05-25T23:52:38.444Z,99.90
2019-05-25T23:55:08.812Z,99.90
2019-05-25T23:57:38.107Z,99.90
